Bohemia, Louisiana
Current Conditions -  °F | °C
As of 5:55 AM on Tuesday 27 Jan 2015 (Local Time) from KNBG Reporting Station
Clear Clear  
Wind Chill: 47°   Ceiling: Unl
Heat Index: 49°   Visibility: 10mi
Dew Point: 41°   Wind: 5mph
Humidity: 74%   Direction: 250°WSW
Pressure: 30.07"   Gusts: NA
Location:  29.5781°N, 89.7956°W
Report Text: KNBG 271155Z 25004KT 10SM CLR 09/05 A3007 RMK AO2 SLP183 T00940050 10100 20078 55003 $
Loading
Personal Weather Stations






























Interactive Weather Map New forecast layout! Learn more

10-Day Weather Forecast

Advertisements
Track Severe Weather on mobile